Time;durP1;ratioP1;P1;durP2;ratioP2;P2;SDS_P1;SDS_P2;PMS_P1;PMS_P2;Temp;Humidity;BMP_temperature;BMP_pressure;BME280_temperature;BME280_humidity;BME280_pressure;Samples;Min_cycle;Max_cycle;Signal;HPM_P1;HPM_P2
2023/10/03 00:01:40;;;;;;;13.97;12.50;;;22.70;99.90;;;;;;5011907;28;20516;-69
2023/10/03 00:04:09;;;;;;;19.53;15.13;;;22.60;99.90;;;;;;5022290;28;20445;-70
2023/10/03 00:06:36;;;;;;;21.20;16.20;;;22.60;99.90;;;;;;5019923;28;20437;-70
2023/10/03 00:09:05;;;;;;;16.90;14.03;;;22.70;99.90;;;;;;5020361;28;20470;-70
2023/10/03 00:11:33;;;;;;;20.27;14.77;;;22.60;99.90;;;;;;5012151;28;20470;-70
2023/10/03 00:14:03;;;;;;;18.33;14.53;;;22.60;99.90;;;;;;5019718;28;20869;-71
2023/10/03 00:16:33;;;;;;;15.10;12.87;;;22.60;99.90;;;;;;5023061;28;20451;-70
2023/10/03 00:19:00;;;;;;;19.03;15.20;;;22.60;99.90;;;;;;5022994;28;20456;-70
2023/10/03 00:21:28;;;;;;;19.37;15.17;;;22.60;99.90;;;;;;5010999;28;20496;-70
2023/10/03 00:23:55;;;;;;;19.00;15.17;;;22.60;99.90;;;;;;5022973;28;20476;-70
2023/10/03 00:26:22;;;;;;;19.33;13.43;;;22.60;99.90;;;;;;5019949;28;20454;-70
2023/10/03 00:28:49;;;;;;;15.13;13.50;;;22.60;99.90;;;;;;5019613;28;20470;-70
2023/10/03 00:31:16;;;;;;;21.90;14.80;;;22.60;99.90;;;;;;5020606;28;20553;-70
2023/10/03 00:33:43;;;;;;;16.97;13.60;;;22.60;99.90;;;;;;5023136;28;20508;-70
2023/10/03 00:36:18;;;;;;;19.40;14.00;;;22.60;99.90;;;;;;5025570;28;20473;-70
2023/10/03 00:38:47;;;;;;;19.23;13.63;;;22.60;99.90;;;;;;5023642;28;20475;-70
2023/10/03 00:41:14;;;;;;;15.60;14.00;;;22.60;99.90;;;;;;5021038;28;20554;-70
2023/10/03 00:43:53;;;;;;;16.30;14.70;;;22.50;99.90;;;;;;5024837;28;20457;-70
2023/10/03 00:46:21;;;;;;;17.40;14.40;;;22.50;99.90;;;;;;5020198;28;20476;-70
2023/10/03 00:48:48;;;;;;;20.50;14.93;;;22.60;99.90;;;;;;5013697;28;20449;-70
2023/10/03 00:51:16;;;;;;;15.80;14.13;;;22.60;99.90;;;;;;5024457;28;20488;-70
2023/10/03 00:53:44;;;;;;;15.70;13.97;;;22.60;99.90;;;;;;5022970;28;21004;-70
2023/10/03 00:56:12;;;;;;;19.60;13.70;;;22.60;99.90;;;;;;5024429;28;20533;-70
2023/10/03 00:58:42;;;;;;;17.70;14.97;;;22.50;99.90;;;;;;5026483;28;20461;-70
2023/10/03 01:01:11;;;;;;;14.67;13.27;;;22.60;99.90;;;;;;5025351;28;20487;-69
2023/10/03 01:03:39;;;;;;;16.03;14.43;;;22.50;99.90;;;;;;5022992;28;20473;-70
2023/10/03 01:06:08;;;;;;;18.93;14.30;;;22.50;99.90;;;;;;5022953;28;21002;-70
2023/10/03 01:08:37;;;;;;;18.10;16.20;;;22.50;99.90;;;;;;5023246;28;20802;-70
2023/10/03 01:11:07;;;;;;;17.40;14.00;;;22.50;99.90;;;;;;5025811;28;20464;-70
2023/10/03 01:13:37;;;;;;;19.97;13.70;;;22.50;99.90;;;;;;5022743;28;20484;-70
2023/10/03 01:16:06;;;;;;;21.37;14.93;;;22.50;99.90;;;;;;5022939;28;20485;-70
2023/10/03 01:18:33;;;;;;;16.33;14.93;;;22.50;99.90;;;;;;5026468;28;20808;-70
2023/10/03 01:21:04;;;;;;;22.83;15.87;;;22.50;99.90;;;;;;5026265;28;20477;-70
2023/10/03 01:23:33;;;;;;;18.23;15.83;;;22.50;99.90;;;;;;5015190;28;20589;-70
2023/10/03 01:26:00;;;;;;;17.10;14.17;;;22.50;99.90;;;;;;5022337;28;21016;-70
2023/10/03 01:28:27;;;;;;;17.93;16.03;;;22.50;99.90;;;;;;5022761;28;20473;-70
2023/10/03 01:30:54;;;;;;;20.80;15.60;;;22.50;99.90;;;;;;5022303;28;20504;-70
2023/10/03 01:33:26;;;;;;;19.10;15.17;;;22.50;99.90;;;;;;5031951;23;20513;-65
2023/10/03 01:35:53;;;;;;;17.40;15.03;;;22.50;99.90;;;;;;5000095;28;20456;-65
2023/10/03 01:38:20;;;;;;;21.77;14.00;;;22.50;99.90;;;;;;5004458;28;20953;-65
2023/10/03 01:40:52;;;;;;;19.80;15.60;;;22.50;99.90;;;;;;5006222;28;20485;-65
2023/10/03 01:43:19;;;;;;;19.23;12.93;;;22.50;99.90;;;;;;5003617;28;20457;-65
2023/10/03 01:45:46;;;;;;;19.60;14.07;;;22.40;99.90;;;;;;5002018;28;20446;-65
2023/10/03 01:48:14;;;;;;;16.20;14.50;;;22.40;99.90;;;;;;4998789;28;20878;-65
2023/10/03 01:50:42;;;;;;;19.63;16.73;;;22.50;99.90;;;;;;5002673;28;20446;-65
2023/10/03 01:53:11;;;;;;;20.40;17.07;;;22.40;99.90;;;;;;5002177;28;20853;-65
2023/10/03 01:55:38;;;;;;;15.43;13.90;;;22.40;99.90;;;;;;5006061;28;20446;-65
2023/10/03 01:58:07;;;;;;;17.10;15.40;;;22.40;99.90;;;;;;5005649;28;20477;-64
2023/10/03 02:00:35;;;;;;;16.93;14.20;;;22.40;99.90;;;;;;4999586;28;20450;-65
2023/10/03 02:03:05;;;;;;;20.43;13.63;;;22.40;99.90;;;;;;5002313;28;20471;-65
2023/10/03 02:05:34;;;;;;;17.50;14.67;;;22.40;99.90;;;;;;4994906;28;20509;-65
2023/10/03 02:08:07;;;;;;;18.03;15.50;;;22.40;99.90;;;;;;4995466;28;20487;-65
2023/10/03 02:10:35;;;;;;;19.27;14.90;;;22.40;99.90;;;;;;4995011;28;20451;-65
2023/10/03 02:13:08;;;;;;;16.50;14.93;;;22.40;99.90;;;;;;5001923;28;20486;-65
2023/10/03 02:15:38;;;;;;;16.33;14.63;;;22.40;99.90;;;;;;4995216;28;20466;-65
2023/10/03 02:18:08;;;;;;;16.57;14.07;;;22.40;99.90;;;;;;4995532;28;20970;-65
2023/10/03 02:20:47;;;;;;;18.07;15.37;;;22.40;99.90;;;;;;5005455;28;20855;-65
2023/10/03 02:23:17;;;;;;;18.10;15.30;;;22.40;99.90;;;;;;5003690;28;20468;-65
2023/10/03 02:25:45;;;;;;;15.90;14.20;;;22.40;99.90;;;;;;5002121;28;20501;-65
2023/10/03 02:28:14;;;;;;;15.50;13.07;;;22.40;99.90;;;;;;5008546;28;20485;-65
2023/10/03 02:30:42;;;;;;;19.30;14.07;;;22.40;99.90;;;;;;5001859;28;20536;-65
2023/10/03 02:33:12;;;;;;;16.73;14.57;;;22.40;99.90;;;;;;5002130;28;20519;-65
2023/10/03 02:35:40;;;;;;;20.13;16.93;;;22.40;99.90;;;;;;5005430;28;20809;-65
2023/10/03 02:38:09;;;;;;;20.87;13.67;;;22.40;99.90;;;;;;5004078;28;20485;-65
2023/10/03 02:40:36;;;;;;;19.10;15.03;;;22.40;99.90;;;;;;5001640;28;20454;-65
2023/10/03 02:43:05;;;;;;;17.30;15.13;;;22.40;99.90;;;;;;5001368;28;20488;-65
2023/10/03 02:45:32;;;;;;;17.40;15.33;;;22.40;99.90;;;;;;4993949;28;20475;-65
2023/10/03 02:48:07;;;;;;;15.83;13.73;;;22.40;99.90;;;;;;5001701;28;20493;-65
2023/10/03 02:50:34;;;;;;;16.00;13.27;;;22.30;99.90;;;;;;4986181;28;20454;-65
2023/10/03 02:53:12;;;;;;;16.40;14.70;;;22.40;99.90;;;;;;5004536;28;20521;-65
2023/10/03 02:55:39;;;;;;;21.50;13.93;;;22.30;99.90;;;;;;4994619;28;20450;-65
2023/10/03 02:58:06;;;;;;;14.67;13.13;;;22.30;99.90;;;;;;5001366;28;20933;-64
2023/10/03 03:00:35;;;;;;;16.83;14.90;;;22.40;99.90;;;;;;5004724;28;20468;-65
2023/10/03 03:03:06;;;;;;;16.37;14.67;;;22.40;99.90;;;;;;5000698;28;20479;-64
2023/10/03 03:05:36;;;;;;;15.17;13.57;;;22.30;99.90;;;;;;4993764;28;20451;-65
2023/10/03 03:08:10;;;;;;;16.10;14.60;;;22.30;99.90;;;;;;5001682;28;20450;-65
2023/10/03 03:10:39;;;;;;;22.77;14.77;;;22.40;99.90;;;;;;4994167;28;20438;-65
2023/10/03 03:13:07;;;;;;;16.33;14.47;;;22.30;99.90;;;;;;5000155;28;20986;-65
2023/10/03 03:15:37;;;;;;;18.10;14.90;;;22.30;99.90;;;;;;5004426;28;20465;-65
2023/10/03 03:18:06;;;;;;;17.93;15.30;;;22.40;99.90;;;;;;5004442;28;20482;-65
2023/10/03 03:20:37;;;;;;;19.50;14.70;;;22.30;99.90;;;;;;4993303;28;20478;-65
2023/10/03 03:23:06;;;;;;;19.07;13.90;;;22.30;99.90;;;;;;5000978;28;20518;-65
2023/10/03 03:25:36;;;;;;;17.20;14.40;;;22.30;99.90;;;;;;4999115;28;20521;-65
2023/10/03 03:28:04;;;;;;;15.27;12.93;;;22.30;99.90;;;;;;4997267;28;20530;-65
2023/10/03 03:30:37;;;;;;;17.83;15.93;;;22.40;99.90;;;;;;4992838;28;20814;-65
2023/10/03 03:33:06;;;;;;;18.43;14.50;;;22.30;99.90;;;;;;5000579;28;20515;-65
2023/10/03 03:35:39;;;;;;;19.53;14.90;;;22.30;99.90;;;;;;5000794;28;20443;-65
2023/10/03 03:38:15;;;;;;;18.00;13.40;;;22.30;99.90;;;;;;4995602;28;20483;-65
2023/10/03 03:40:45;;;;;;;17.40;14.57;;;22.30;99.90;;;;;;4994204;28;20448;-65
2023/10/03 03:43:13;;;;;;;15.13;13.73;;;22.30;99.90;;;;;;5001063;28;20833;-65
2023/10/03 03:45:40;;;;;;;17.67;15.70;;;22.30;99.90;;;;;;5003938;28;20448;-65
2023/10/03 03:48:09;;;;;;;18.13;15.50;;;22.30;99.90;;;;;;5003952;28;21026;-65
2023/10/03 03:50:37;;;;;;;16.23;14.63;;;22.30;99.90;;;;;;5000022;28;20458;-65
2023/10/03 03:53:04;;;;;;;16.90;13.93;;;22.30;99.90;;;;;;5003514;28;20486;-65
2023/10/03 03:55:31;;;;;;;16.93;15.33;;;22.30;99.90;;;;;;4999628;28;20466;-65
2023/10/03 03:57:59;;;;;;;14.50;13.00;;;22.30;99.90;;;;;;4995919;28;20938;-65
2023/10/03 04:00:28;;;;;;;19.80;17.70;;;22.20;99.90;;;;;;5002846;28;20478;-65
2023/10/03 04:02:59;;;;;;;16.23;14.63;;;22.30;99.90;;;;;;5001055;28;20470;-65
2023/10/03 04:05:29;;;;;;;18.63;14.53;;;22.30;99.90;;;;;;5001142;28;20446;-65
2023/10/03 04:07:58;;;;;;;15.20;13.40;;;22.30;99.90;;;;;;5000181;28;20501;-65
2023/10/03 04:10:26;;;;;;;17.33;15.60;;;22.30;99.90;;;;;;5000269;28;20450;-65
2023/10/03 04:12:54;;;;;;;18.97;17.07;;;22.30;99.90;;;;;;4999873;28;20467;-65
2023/10/03 04:15:21;;;;;;;16.27;14.57;;;22.30;99.90;;;;;;5001969;28;20474;-65
2023/10/03 04:17:49;;;;;;;17.50;15.83;;;22.30;99.90;;;;;;5003538;28;20446;-65
2023/10/03 04:20:25;;;;;;;16.63;14.43;;;22.30;99.90;;;;;;5001665;28;20437;-65
2023/10/03 04:22:53;;;;;;;20.00;15.77;;;22.30;99.90;;;;;;4994321;28;20985;-65
2023/10/03 04:25:21;;;;;;;16.30;14.63;;;22.30;99.90;;;;;;5001631;28;20447;-65
2023/10/03 04:27:49;;;;;;;17.40;15.03;;;22.30;99.90;;;;;;5003495;28;20446;-65
2023/10/03 04:30:16;;;;;;;15.07;13.23;;;22.30;99.90;;;;;;5002291;28;20875;-64
2023/10/03 04:32:44;;;;;;;16.83;14.67;;;22.30;99.90;;;;;;5002839;28;20481;-65
2023/10/03 04:35:13;;;;;;;17.87;14.77;;;22.30;99.90;;;;;;5002979;28;20459;-65
2023/10/03 04:37:41;;;;;;;19.93;16.03;;;22.30;99.90;;;;;;4999875;28;20542;-65
2023/10/03 04:40:13;;;;;;;17.53;15.73;;;22.30;99.90;;;;;;5000110;28;20454;-65
2023/10/03 04:42:40;;;;;;;15.93;14.23;;;22.30;99.90;;;;;;4992560;28;20466;-65
2023/10/03 04:45:10;;;;;;;16.00;14.50;;;22.30;99.90;;;;;;4999358;28;20541;-65
2023/10/03 04:47:38;;;;;;;17.03;15.30;;;22.30;99.90;;;;;;4989507;28;20488;-65
2023/10/03 04:50:05;;;;;;;16.60;15.03;;;22.30;99.90;;;;;;4996292;28;20470;-65
2023/10/03 04:52:32;;;;;;;15.70;14.00;;;22.30;99.90;;;;;;5002635;28;21010;-65
2023/10/03 04:54:59;;;;;;;18.63;13.50;;;22.30;99.90;;;;;;5003166;28;20513;-65
2023/10/03 04:57:27;;;;;;;16.10;14.50;;;22.30;99.90;;;;;;4987636;28;20488;-65
2023/10/03 04:59:56;;;;;;;16.63;14.30;;;22.20;99.90;;;;;;5003035;28;20456;-66
2023/10/03 05:02:23;;;;;;;16.03;14.30;;;22.30;99.90;;;;;;5000960;28;20557;-65
2023/10/03 05:04:50;;;;;;;15.83;14.50;;;22.30;99.90;;;;;;4999784;28;20471;-65
2023/10/03 05:07:16;;;;;;;17.30;15.67;;;22.20;99.90;;;;;;5000634;28;20478;-65
2023/10/03 05:09:43;;;;;;;17.20;15.50;;;22.30;99.90;;;;;;4996999;28;20508;-65
2023/10/03 05:12:10;;;;;;;19.40;15.60;;;22.30;99.90;;;;;;5002520;28;20500;-65
2023/10/03 05:14:41;;;;;;;18.07;16.27;;;22.20;99.90;;;;;;4999725;28;20499;-65
2023/10/03 05:17:08;;;;;;;14.30;12.80;;;22.20;99.90;;;;;;4996743;28;20458;-65
2023/10/03 05:19:36;;;;;;;15.17;13.40;;;22.30;99.90;;;;;;4991870;28;20949;-65
2023/10/03 05:22:04;;;;;;;13.40;12.03;;;22.20;99.90;;;;;;5001053;28;20508;-65
2023/10/03 05:24:33;;;;;;;15.83;14.37;;;22.30;99.90;;;;;;5000505;28;20450;-65
2023/10/03 05:27:00;;;;;;;15.67;14.07;;;22.20;99.90;;;;;;5006714;28;20817;-65
2023/10/03 05:29:28;;;;;;;14.90;12.10;;;22.20;99.90;;;;;;5004021;28;20480;-65
2023/10/03 05:32:00;;;;;;;13.43;12.10;;;22.30;99.90;;;;;;5002697;28;20470;-65
2023/10/03 05:34:26;;;;;;;13.67;12.43;;;22.30;99.90;;;;;;4999073;28;20538;-65
2023/10/03 05:36:53;;;;;;;14.70;13.23;;;22.30;99.90;;;;;;5006381;28;20944;-65
2023/10/03 05:39:20;;;;;;;17.17;10.90;;;22.30;99.90;;;;;;5004856;28;20442;-65
2023/10/03 05:41:47;;;;;;;13.03;11.93;;;22.30;99.90;;;;;;5002608;28;20505;-65
2023/10/03 05:44:18;;;;;;;13.67;12.30;;;22.30;99.90;;;;;;5003282;28;20470;-65
2023/10/03 05:46:45;;;;;;;16.80;12.33;;;22.30;99.90;;;;;;4998526;28;20458;-65
2023/10/03 05:49:13;;;;;;;16.53;14.70;;;22.30;99.90;;;;;;5005848;28;20445;-65
2023/10/03 05:51:40;;;;;;;14.10;12.80;;;22.30;99.90;;;;;;5002394;28;21002;-65
2023/10/03 05:54:07;;;;;;;13.37;12.30;;;22.30;99.90;;;;;;5002541;28;20481;-65
2023/10/03 05:56:34;;;;;;;13.87;12.63;;;22.30;99.90;;;;;;5005560;28;20517;-65
2023/10/03 05:59:01;;;;;;;13.03;11.73;;;22.30;99.90;;;;;;4999323;28;20530;-65
2023/10/03 06:01:28;;;;;;;11.97;10.87;;;22.40;99.90;;;;;;5003299;28;20469;-65
2023/10/03 06:03:56;;;;;;;13.17;11.70;;;22.30;99.90;;;;;;5002294;28;20522;-65
2023/10/03 06:06:28;;;;;;;12.70;11.70;;;22.30;99.90;;;;;;5003885;28;20453;-65
2023/10/03 06:08:56;;;;;;;13.00;12.00;;;22.30;99.90;;;;;;5005728;28;20458;-65
2023/10/03 06:11:24;;;;;;;13.63;12.43;;;22.30;99.90;;;;;;5001390;28;20481;-65
2023/10/03 06:13:51;;;;;;;13.47;12.13;;;22.30;99.90;;;;;;5005479;28;21023;-65
2023/10/03 06:16:18;;;;;;;13.47;12.27;;;22.30;99.90;;;;;;5004788;28;20540;-65
2023/10/03 06:18:44;;;;;;;13.93;12.03;;;22.30;99.90;;;;;;5002255;28;21032;-66
2023/10/03 06:21:11;;;;;;;13.47;11.93;;;22.30;99.90;;;;;;5002030;28;20447;-66
2023/10/03 06:23:40;;;;;;;13.27;12.10;;;22.30;99.90;;;;;;4989481;28;20500;-66
2023/10/03 06:26:07;;;;;;;13.00;12.10;;;22.30;99.90;;;;;;5005432;28;20478;-66
2023/10/03 06:28:33;;;;;;;12.90;11.83;;;22.30;99.90;;;;;;5005303;28;20442;-66
2023/10/03 06:31:00;;;;;;;12.03;11.03;;;22.30;99.90;;;;;;4998924;28;20478;-65
2023/10/03 06:33:28;;;;;;;12.27;11.37;;;22.30;99.90;;;;;;5004467;28;20509;-67
2023/10/03 06:35:54;;;;;;;12.23;11.13;;;22.40;99.90;;;;;;5003765;28;20457;-67
2023/10/03 06:38:23;;;;;;;13.67;12.47;;;22.50;99.90;;;;;;5003925;28;20447;-64
2023/10/03 06:40:51;;;;;;;10.50;9.70;;;22.50;99.90;;;;;;5005772;28;20454;-65
2023/10/03 06:43:18;;;;;;;10.47;9.73;;;22.60;99.90;;;;;;5004683;28;20832;-65
2023/10/03 06:45:46;;;;;;;10.50;9.70;;;22.60;99.90;;;;;;5002122;28;20446;-65
2023/10/03 06:48:13;;;;;;;9.20;8.70;;;22.60;99.90;;;;;;5009742;28;20489;-65
2023/10/03 06:50:42;;;;;;;10.63;9.83;;;22.60;99.90;;;;;;4999127;28;20457;-65
2023/10/03 06:53:09;;;;;;;11.27;10.17;;;22.70;99.90;;;;;;5002019;28;20580;-65
2023/10/03 06:55:36;;;;;;;11.97;10.50;;;22.70;99.90;;;;;;5002492;28;20483;-64
2023/10/03 06:58:04;;;;;;;10.77;10.03;;;22.70;99.90;;;;;;5001253;28;20438;-69
2023/10/03 07:00:32;;;;;;;9.90;9.10;;;22.70;99.90;;;;;;5003047;28;20457;-66
2023/10/03 07:02:59;;;;;;;10.37;9.67;;;22.80;99.90;;;;;;5001831;28;20997;-64
2023/10/03 07:05:26;;;;;;;10.40;9.40;;;22.80;99.90;;;;;;5003310;28;20447;-63
2023/10/03 07:07:54;;;;;;;11.23;10.20;;;22.80;99.90;;;;;;5001822;28;20474;-63
2023/10/03 07:10:22;;;;;;;11.33;10.30;;;22.80;99.90;;;;;;5002810;28;20447;-63
2023/10/03 07:12:49;;;;;;;10.73;9.83;;;22.80;99.90;;;;;;5004929;28;20554;-63
2023/10/03 07:15:18;;;;;;;10.30;9.67;;;22.80;99.90;;;;;;5004597;28;20477;-64
2023/10/03 07:17:45;;;;;;;10.50;9.80;;;22.80;99.90;;;;;;4995276;28;20455;-62
2023/10/03 07:20:13;;;;;;;10.00;9.30;;;22.90;99.90;;;;;;5001635;28;20938;-67
2023/10/03 07:22:40;;;;;;;11.70;10.70;;;22.90;99.90;;;;;;5001781;28;20498;-64
2023/10/03 07:25:09;;;;;;;11.97;10.93;;;22.90;99.90;;;;;;5001632;28;20478;-68
2023/10/03 07:27:36;;;;;;;10.73;9.77;;;22.90;99.90;;;;;;5004052;28;20449;-68
2023/10/03 07:30:03;;;;;;;12.90;11.60;;;22.90;99.90;;;;;;5004940;28;20449;-66
2023/10/03 07:32:33;;;;;;;9.10;8.60;;;23.00;99.90;;;;;;5012578;23;20479;-68
2023/10/03 07:35:00;;;;;;;10.33;9.73;;;23.00;99.90;;;;;;5003025;28;20478;-70
2023/10/03 07:37:27;;;;;;;10.37;9.67;;;23.00;99.90;;;;;;5002510;28;20478;-71
2023/10/03 07:39:54;;;;;;;9.70;8.93;;;23.00;99.90;;;;;;5004137;28;20454;-70
2023/10/03 07:42:23;;;;;;;10.10;9.37;;;23.00;99.90;;;;;;4997537;28;20859;-70
2023/10/03 07:44:52;;;;;;;9.30;8.67;;;23.10;99.90;;;;;;5003343;28;20457;-71
2023/10/03 07:47:20;;;;;;;8.80;8.40;;;23.10;99.90;;;;;;5003449;28;20443;-70
2023/10/03 07:49:49;;;;;;;9.53;8.93;;;23.20;99.90;;;;;;5000635;28;20510;-70
2023/10/03 07:52:18;;;;;;;9.60;9.03;;;23.20;99.90;;;;;;4999904;28;20466;-71
2023/10/03 07:54:49;;;;;;;11.30;9.90;;;23.10;99.90;;;;;;5003832;28;20573;-71
2023/10/03 07:57:16;;;;;;;9.43;8.80;;;23.20;99.90;;;;;;5003947;28;20446;-71
2023/10/03 07:59:43;;;;;;;9.37;8.77;;;23.20;99.90;;;;;;5000493;28;20506;-70
2023/10/03 08:02:11;;;;;;;9.23;8.73;;;23.20;99.90;;;;;;4999638;28;20463;-70
2023/10/03 08:04:40;;;;;;;9.97;9.03;;;23.20;99.90;;;;;;4992475;28;21436;-71
2023/10/03 08:07:14;;;;;;;9.67;8.87;;;23.20;99.90;;;;;;5003325;28;20587;-72
2023/10/03 08:09:46;;;;;;;10.13;9.53;;;23.20;99.90;;;;;;4992393;28;20447;-70
2023/10/03 08:12:13;;;;;;;10.23;9.30;;;23.30;99.90;;;;;;5000268;28;20498;-69
2023/10/03 08:14:40;;;;;;;8.73;8.20;;;23.20;99.90;;;;;;5003518;28;20897;-68
2023/10/03 08:17:07;;;;;;;9.90;9.30;;;23.20;99.90;;;;;;5003651;28;20473;-69
2023/10/03 08:19:36;;;;;;;10.00;9.50;;;23.30;99.90;;;;;;5000936;28;21011;-67
2023/10/03 08:22:04;;;;;;;10.60;9.80;;;23.30;99.90;;;;;;4999838;28;20509;-69
2023/10/03 08:24:32;;;;;;;10.80;9.70;;;23.30;99.90;;;;;;5000797;28;20455;-72
2023/10/03 08:27:01;;;;;;;9.43;8.77;;;23.20;99.90;;;;;;5003077;28;20456;-67
2023/10/03 08:29:28;;;;;;;8.97;8.30;;;23.20;99.90;;;;;;5001754;28;20537;-67
2023/10/03 08:31:57;;;;;;;9.53;8.73;;;23.20;99.90;;;;;;4991341;28;20486;-67
2023/10/03 08:34:25;;;;;;;9.13;8.63;;;23.10;99.90;;;;;;5002039;28;20849;-68
2023/10/03 08:36:54;;;;;;;9.47;8.67;;;23.20;99.90;;;;;;5000052;28;20479;-69
2023/10/03 08:39:23;;;;;;;10.87;9.93;;;23.20;99.90;;;;;;5000336;28;20497;-70
2023/10/03 08:42:11;;;;;;;11.53;10.50;;;23.30;99.90;;;;;;5002769;28;20486;-69
2023/10/03 08:44:49;;;;;;;9.83;9.13;;;23.30;99.90;;;;;;5000353;28;20888;-69
2023/10/03 08:47:19;;;;;;;9.67;8.90;;;23.30;99.90;;;;;;4999918;28;20447;-68
2023/10/03 08:49:56;;;;;;;9.03;8.30;;;23.30;99.90;;;;;;4992379;28;20471;-69
2023/10/03 08:52:38;;;;;;;9.80;9.20;;;23.30;99.90;;;;;;5000462;28;20473;-69
2023/10/03 08:55:08;;;;;;;8.80;8.40;;;23.20;99.90;;;;;;5001166;28;20489;-68
2023/10/03 08:57:37;;;;;;;9.90;9.27;;;23.20;99.90;;;;;;5005945;28;20973;-68
2023/10/03 09:00:06;;;;;;;9.07;8.37;;;23.20;99.90;;;;;;5006975;28;20449;-69
2023/10/03 09:02:45;;;;;;;8.57;8.10;;;23.30;99.90;;;;;;5004079;28;20473;-69
2023/10/03 09:05:19;;;;;;;8.63;8.03;;;23.20;99.90;;;;;;5003692;28;20446;-68
2023/10/03 09:07:46;;;;;;;9.57;8.97;;;23.30;99.90;;;;;;4996021;28;20451;-69
2023/10/03 09:10:22;;;;;;;8.93;8.43;;;23.20;99.90;;;;;;5003827;28;20450;-69
2023/10/03 09:12:51;;;;;;;8.20;7.80;;;23.20;99.90;;;;;;4983649;28;20465;-67
2023/10/03 09:15:22;;;;;;;9.43;8.93;;;23.20;99.90;;;;;;4994942;28;20501;-69
2023/10/03 09:17:50;;;;;;;9.53;8.73;;;23.20;99.90;;;;;;4996275;28;20455;-69
2023/10/03 09:20:31;;;;;;;9.20;8.70;;;23.20;99.90;;;;;;5003618;28;20453;-68
2023/10/03 09:23:05;;;;;;;8.90;8.23;;;23.30;99.90;;;;;;4999507;28;20489;-68
2023/10/03 09:25:32;;;;;;;8.53;8.07;;;23.30;99.90;;;;;;5005084;28;20436;-68
2023/10/03 09:28:05;;;;;;;10.00;9.00;;;23.30;99.90;;;;;;5006820;28;20478;-67
2023/10/03 09:30:37;;;;;;;7.87;7.57;;;23.30;99.90;;;;;;5004269;28;20486;-66
2023/10/03 09:33:05;;;;;;;8.87;8.47;;;23.30;99.90;;;;;;4996732;28;20520;-67
2023/10/03 09:35:33;;;;;;;9.70;9.10;;;23.30;99.90;;;;;;5004527;28;20509;-69
2023/10/03 09:38:05;;;;;;;10.00;9.33;;;23.20;99.90;;;;;;5003248;28;21167;-68
2023/10/03 09:40:49;;;;;;;8.97;8.67;;;23.20;99.90;;;;;;5004637;28;20933;-69
2023/10/03 09:43:19;;;;;;;9.10;8.50;;;23.20;99.90;;;;;;5005712;28;20523;-68
2023/10/03 09:45:47;;;;;;;8.10;7.73;;;23.20;99.90;;;;;;4995068;28;20451;-69
2023/10/03 09:48:15;;;;;;;8.53;7.93;;;23.20;99.90;;;;;;5002897;28;20451;-70
2023/10/03 09:50:51;;;;;;;8.80;8.20;;;23.20;99.90;;;;;;5005673;28;20501;-67
2023/10/03 09:53:19;;;;;;;7.90;7.47;;;23.20;99.90;;;;;;5005550;28;20500;-71
2023/10/03 09:55:49;;;;;;;7.97;7.47;;;23.20;99.90;;;;;;4994853;28;20529;-70
2023/10/03 09:58:24;;;;;;;9.30;8.40;;;23.20;99.90;;;;;;5002591;28;20443;-71
2023/10/03 10:00:53;;;;;;;9.00;8.50;;;23.20;99.90;;;;;;4995254;28;20505;-71
2023/10/03 10:03:27;;;;;;;9.93;9.47;;;23.30;99.90;;;;;;5007126;28;20484;-66
2023/10/03 10:06:12;;;;;;;8.20;7.90;;;23.30;99.90;;;;;;5002557;28;20858;-71
2023/10/03 10:08:48;;;;;;;8.17;7.57;;;23.30;99.90;;;;;;5004962;28;20450;-70
2023/10/03 10:11:16;;;;;;;8.30;8.00;;;23.30;99.90;;;;;;5005616;28;20481;-68
2023/10/03 10:14:09;;;;;;;8.03;7.70;;;23.30;99.90;;;;;;5001945;28;20502;-70
2023/10/03 10:16:36;;;;;;;9.23;8.53;;;23.20;99.90;;;;;;5004212;28;20851;-70
2023/10/03 10:19:04;;;;;;;8.70;8.30;;;23.20;99.90;;;;;;5005488;28;20475;-67
2023/10/03 10:21:36;;;;;;;9.90;9.30;;;23.20;99.90;;;;;;5004057;28;20445;-68
2023/10/03 10:27:24;;;;;;;8.90;8.50;;;23.20;99.90;;;;;;4994762;28;20497;-69
2023/10/03 10:30:13;;;;;;;10.07;9.63;;;23.20;99.90;;;;;;4994577;28;20779;-71
2023/10/03 10:33:21;;;;;;;9.40;8.97;;;23.20;99.90;;;;;;5000035;28;20478;-71
2023/10/03 10:35:54;;;;;;;9.90;9.30;;;23.30;99.90;;;;;;5001833;28;20487;-70
2023/10/03 10:38:53;;;;;;;9.97;9.37;;;23.40;99.90;;;;;;4985012;28;20609;-68
2023/10/03 10:41:30;;;;;;;10.27;9.43;;;23.40;99.90;;;;;;5003302;28;20438;-69
2023/10/03 10:44:21;;;;;;;9.20;8.73;;;23.40;99.90;;;;;;5000698;28;20476;-69
2023/10/03 10:47:21;;;;;;;8.90;8.30;;;23.40;99.90;;;;;;4993903;28;21013;-70
2023/10/03 10:49:58;;;;;;;10.70;9.90;;;23.40;99.90;;;;;;4993923;28;20459;-69
2023/10/03 10:52:29;;;;;;;11.67;10.97;;;23.40;99.90;;;;;;5000121;28;20557;-69
2023/10/03 10:54:58;;;;;;;10.87;10.47;;;23.40;99.90;;;;;;5004709;28;20457;-69
2023/10/03 10:57:28;;;;;;;10.50;9.90;;;23.40;99.90;;;;;;5004214;28;20470;-69
2023/10/03 10:59:56;;;;;;;11.60;10.70;;;23.30;99.90;;;;;;5001617;28;20787;-72
2023/10/03 11:02:26;;;;;;;12.23;11.47;;;23.30;99.90;;;;;;5000817;28;20545;-71
2023/10/03 11:04:57;;;;;;;10.57;10.00;;;23.30;99.90;;;;;;5004614;28;20470;-71
2023/10/03 11:07:26;;;;;;;11.40;10.60;;;23.30;99.90;;;;;;5004122;28;20446;-70
2023/10/03 11:09:54;;;;;;;11.27;10.47;;;23.20;99.90;;;;;;5001340;28;20447;-70
2023/10/03 11:12:25;;;;;;;12.70;11.77;;;23.20;99.90;;;;;;5000394;28;20554;-71
2023/10/03 11:14:52;;;;;;;10.60;10.20;;;23.20;99.90;;;;;;4993478;28;20446;-70
2023/10/03 11:17:19;;;;;;;10.60;10.00;;;23.20;99.90;;;;;;5001137;28;20446;-69
2023/10/03 11:19:49;;;;;;;11.70;11.00;;;23.20;99.90;;;;;;5003259;28;20497;-70
2023/10/03 11:22:17;;;;;;;10.20;9.90;;;23.20;99.90;;;;;;4995371;28;20477;-70
2023/10/03 11:24:45;;;;;;;10.93;10.53;;;23.20;99.90;;;;;;5003299;28;20820;-70
2023/10/03 11:27:24;;;;;;;11.10;10.60;;;23.20;99.90;;;;;;5004209;28;20525;-70
2023/10/03 11:29:51;;;;;;;10.37;9.87;;;23.20;99.90;;;;;;4993245;28;21118;-69
2023/10/03 11:32:26;;;;;;;11.47;10.97;;;23.10;99.90;;;;;;5000010;28;20521;-69
2023/10/03 11:34:57;;;;;;;12.73;12.23;;;23.10;99.90;;;;;;4993386;28;20475;-69
2023/10/03 11:37:32;;;;;;;12.47;11.97;;;23.10;99.90;;;;;;5000812;28;20530;-70
2023/10/03 11:40:08;;;;;;;11.10;10.70;;;23.10;99.90;;;;;;5004094;28;21006;-70
2023/10/03 11:42:43;;;;;;;11.33;10.80;;;23.00;99.90;;;;;;4999706;28;20965;-70
2023/10/03 11:45:15;;;;;;;10.93;10.43;;;23.00;99.90;;;;;;5003964;28;20437;-70
2023/10/03 11:47:42;;;;;;;11.47;10.80;;;23.00;99.90;;;;;;5001543;28;20457;-70
2023/10/03 11:50:10;;;;;;;10.43;10.03;;;23.00;99.90;;;;;;4991341;28;20442;-69
2023/10/03 11:52:37;;;;;;;11.63;11.17;;;23.00;99.90;;;;;;5001446;28;20493;-70
2023/10/03 11:55:09;;;;;;;10.57;10.07;;;22.90;99.90;;;;;;5000474;28;20451;-69
2023/10/03 11:57:36;;;;;;;9.67;9.37;;;22.90;99.90;;;;;;5001569;28;20459;-70
2023/10/03 12:00:08;;;;;;;11.47;10.90;;;22.90;99.90;;;;;;5003701;28;20951;-69
2023/10/03 12:02:36;;;;;;;10.17;9.77;;;22.90;99.90;;;;;;5002035;28;20465;-69
2023/10/03 12:05:04;;;;;;;11.20;10.70;;;22.90;99.90;;;;;;5000472;28;20537;-70
2023/10/03 12:07:32;;;;;;;10.43;9.83;;;22.90;99.90;;;;;;5000831;28;20455;-70
2023/10/03 12:09:59;;;;;;;11.27;10.67;;;22.80;99.90;;;;;;4985430;28;20843;-69
2023/10/03 12:12:27;;;;;;;11.70;11.20;;;22.80;99.90;;;;;;5002957;28;20498;-69
2023/10/03 12:14:55;;;;;;;10.87;10.47;;;22.80;99.90;;;;;;5000331;28;20439;-70
2023/10/03 12:17:22;;;;;;;10.80;10.10;;;22.80;99.90;;;;;;5000037;28;20510;-69
2023/10/03 12:19:49;;;;;;;10.37;9.97;;;22.80;99.90;;;;;;5003246;28;20442;-69
2023/10/03 12:22:17;;;;;;;10.63;10.30;;;22.80;99.90;;;;;;5003134;28;20466;-70
2023/10/03 12:24:45;;;;;;;10.40;9.90;;;22.80;99.90;;;;;;5000885;28;20450;-69
2023/10/03 12:27:15;;;;;;;10.30;9.90;;;22.80;99.90;;;;;;4999853;28;20478;-70
2023/10/03 12:29:43;;;;;;;10.10;9.80;;;22.80;99.90;;;;;;5002875;28;20450;-73
2023/10/03 12:32:10;;;;;;;10.03;9.60;;;22.80;99.90;;;;;;5007148;28;20532;-69
2023/10/03 12:34:37;;;;;;;10.03;9.73;;;22.80;99.90;;;;;;5005755;28;20456;-70
2023/10/03 12:37:11;;;;;;;10.00;9.20;;;22.80;99.90;;;;;;5003743;28;20520;-70
2023/10/03 12:39:38;;;;;;;9.27;9.00;;;22.90;99.90;;;;;;5005316;28;20463;-70
2023/10/03 12:42:06;;;;;;;9.37;8.97;;;22.80;99.90;;;;;;5007021;28;20497;-70
2023/10/03 12:44:33;;;;;;;10.60;10.10;;;22.80;99.90;;;;;;5006265;28;20868;-70
2023/10/03 12:47:00;;;;;;;10.30;9.83;;;22.80;99.90;;;;;;5003643;28;20465;-70
2023/10/03 12:49:27;;;;;;;9.43;8.93;;;22.80;99.90;;;;;;5003525;28;20537;-69